»·PEaware :: WAT169 KLAS-KRNO

WAT169 :: KLAS-KRNO

FLIGHT INFORMATION

Flight Status: Arrived
Operator:
Walker Air Transport
More flights by this operator :: More flights under this callsign
Pilot: Marty P. (27464)
Aircraft: BOEING 737-800
(B738)
More flights by this aircraft type
Origin: KLAS McCarran Intl
United States
Destination: KRNO Reno/Tahoe Intl
United States
More flights between these airports :: More routes between these airports
Route: SHEAD1 KENNO KENNO2
File this flight plan on PilotEdge
Remarks:
Altitude:
(Current/Filed)
34,000ft
Speed:
(Current/Filed)
480kts
Departed: 05-Jan-21 08:20 PM
Arrived: 05-Jan-21 09:14 PM
Distance/Time
Traveled:
300nm/0:53
Distance/Time
To Go:
Arrived

Flight Plot

Page will automatically refresh every two minutes.

Flight plan parsing failed; only flown route is shown


Map Options




Map Legend


Flown Route
Filed Route
Departure Airport
Arrival Airport
Navaid (VOR, NDB)
Fix

Horizontal Profiles

Position Reports

Time Latitude Longitude Heading Altitude Ground
Speed
05-Jan-21 19:52 36.081631 -115.148093 66 2100ft 0kts
05-Jan-21 19:53 36.081631 -115.148093 66 2100ft 0kts
05-Jan-21 19:54 36.081631 -115.148093 66 2100ft 0kts
05-Jan-21 19:55 36.081631 -115.148093 66 2100ft 0kts
05-Jan-21 19:56 36.081631 -115.148093 66 2100ft 0kts
05-Jan-21 19:57 36.081631 -115.148093 66 2099ft 0kts
05-Jan-21 19:58 36.081631 -115.148093 66 2099ft 0kts
05-Jan-21 19:59 36.081631 -115.148093 66 2099ft 0kts
05-Jan-21 20:00 36.081631 -115.148093 66 2099ft 0kts
05-Jan-21 20:01 36.081631 -115.148093 66 2099ft 0kts
05-Jan-21 20:02 36.081631 -115.148093 66 2099ft 0kts
05-Jan-21 20:03 36.081631 -115.148093 66 2099ft 0kts
05-Jan-21 20:04 36.081631 -115.148093 66 2099ft 0kts
05-Jan-21 20:05 36.081631 -115.148093 66 2099ft 0kts
05-Jan-21 20:06 36.081631 -115.148093 66 2099ft 0kts
05-Jan-21 20:07 36.081631 -115.148093 66 2099ft 0kts
05-Jan-21 20:08 36.081631 -115.148094 66 2099ft 0kts
05-Jan-21 20:09 36.081510 -115.148429 66 2101ft 2kts
05-Jan-21 20:10 36.081602 -115.148831 155 2102ft 0kts
05-Jan-21 20:11 36.081602 -115.148831 155 2102ft 0kts
05-Jan-21 20:12 36.081505 -115.148777 157 2102ft 3kts
05-Jan-21 20:13 36.079815 -115.147807 155 2102ft 4kts
05-Jan-21 20:14 36.078377 -115.145168 94 2097ft 12kts
05-Jan-21 20:15 36.078266 -115.139750 89 2080ft 18kts
05-Jan-21 20:16 36.078247 -115.132196 92 2057ft 24kts
05-Jan-21 20:17 36.078278 -115.124533 89 2042ft 22kts
05-Jan-21 20:18 36.077372 -115.121418 146 2039ft 4kts
05-Jan-21 20:19 36.076327 -115.125588 268 2046ft 71kts
05-Jan-21 20:20 36.076821 -115.177809 269 3682ft 187kts
05-Jan-21 20:21 36.063090 -115.251262 229 5941ft 248kts
05-Jan-21 20:22 35.998309 -115.289721 200 7001ft 257kts
05-Jan-21 20:23 35.938182 -115.341141 225 9000ft 278kts
05-Jan-21 20:24 35.892693 -115.413997 252 10541ft 272kts
05-Jan-21 20:25 35.887652 -115.521287 274 11000ft 360kts
05-Jan-21 20:26 35.890622 -115.652308 272 10999ft 388kts
05-Jan-21 20:27 35.892902 -115.788275 272 14248ft 400kts
05-Jan-21 20:28 35.897688 -115.927402 282 17144ft 414kts
05-Jan-21 20:29 35.961610 -116.045543 314 19691ft 428kts
05-Jan-21 20:30 36.048911 -116.146871 316 22191ft 433kts
05-Jan-21 20:31 36.136756 -116.248289 316 24696ft 431kts
05-Jan-21 20:32 36.222414 -116.347375 316 27143ft 424kts
05-Jan-21 20:33 36.309219 -116.448073 317 28797ft 432kts
05-Jan-21 20:34 36.397419 -116.550675 317 30200ft 441kts
05-Jan-21 20:35 36.487367 -116.656049 316 31535ft 447kts
05-Jan-21 20:36 36.582728 -116.755191 325 33069ft 446kts
05-Jan-21 20:37 36.686079 -116.838759 327 34301ft 448kts
05-Jan-21 20:38 36.794951 -116.922820 327 34293ft 472kts
05-Jan-21 20:39 36.908496 -117.009741 328 34297ft 485kts
05-Jan-21 20:40 37.023996 -117.098199 328 34306ft 491kts
05-Jan-21 20:41 37.140974 -117.188040 328 34329ft 494kts
05-Jan-21 20:42 37.258081 -117.278306 327 34329ft 496kts
05-Jan-21 20:43 37.366505 -117.384762 320 34326ft 497kts
05-Jan-21 20:44 37.473260 -117.496724 323 34303ft 499kts
05-Jan-21 20:45 37.588848 -117.593489 327 34320ft 501kts
05-Jan-21 20:46 37.706395 -117.687493 326 34311ft 503kts
05-Jan-21 20:47 37.825623 -117.782453 326 34290ft 505kts
05-Jan-21 20:48 37.944447 -117.877248 326 34277ft 506kts
05-Jan-21 20:49 38.063079 -117.972195 326 34317ft 488kts
05-Jan-21 20:50 38.171538 -118.059320 326 34348ft 461kts
05-Jan-21 20:51 38.280626 -118.147269 326 34331ft 458kts
05-Jan-21 20:52 38.389067 -118.236424 321 32429ft 466kts
05-Jan-21 20:53 38.485685 -118.346018 316 30280ft 468kts
05-Jan-21 20:54 38.580363 -118.461325 315 28272ft 472kts
05-Jan-21 20:55 38.675148 -118.578244 314 26267ft 477kts
05-Jan-21 20:56 38.767452 -118.692894 313 24253ft 452kts
05-Jan-21 20:57 38.856860 -118.804479 313 22246ft 441kts
05-Jan-21 20:58 38.943255 -118.912376 313 20244ft 428kts
05-Jan-21 20:59 39.027173 -119.017567 313 18239ft 416kts
05-Jan-21 21:01 39.108547 -119.120243 313 16857ft 403kts
05-Jan-21 21:02 39.183293 -119.214777 313 16013ft 357kts
05-Jan-21 21:03 39.249323 -119.298312 313 14565ft 316kts
05-Jan-21 21:04 39.314479 -119.374118 320 12954ft 310kts
05-Jan-21 21:05 39.379429 -119.441798 320 11743ft 282kts
05-Jan-21 21:06 39.437639 -119.502516 320 10037ft 269kts
05-Jan-21 21:07 39.487345 -119.554389 320 10024ft 208kts
05-Jan-21 21:08 39.534780 -119.599622 323 9013ft 206kts
05-Jan-21 21:09 39.580786 -119.642932 324 7932ft 199kts
05-Jan-21 21:10 39.612028 -119.695689 277 6977ft 186kts
05-Jan-21 21:11 39.596277 -119.751622 222 6482ft 163kts
05-Jan-21 21:12 39.554103 -119.769127 179 5393ft 158kts
05-Jan-21 21:13 39.509976 -119.769234 180 4443ft 153kts
05-Jan-21 21:13 39.497394 -119.770227 269 4425ft 4kts
05-Jan-21 21:15 39.497370 -119.770638 268 4425ft 3kts
05-Jan-21 21:16 39.499206 -119.771527 359 4425ft 14kts
05-Jan-21 21:17 39.503752 -119.772240 268 4425ft 10kts
05-Jan-21 21:17 39.503857 -119.774253 316 4425ft 4kts
05-Jan-21 21:18 39.504381 -119.774255 15 4425ft 0kts
05-Jan-21 21:20 39.504381 -119.774255 15 4425ft 0kts
05-Jan-21 21:20 39.504381 -119.774255 15 4425ft 0kts
05-Jan-21 21:21 39.504381 -119.774255 15 4425ft 0kts
05-Jan-21 21:22 39.504381 -119.774255 15 4425ft 0kts
05-Jan-21 21:23 39.504381 -119.774255 15 4425ft 0kts
05-Jan-21 21:24 39.504381 -119.774255 15 4425ft 0kts

Navigation Log

Ident Type
Flight plan parsing failed, navigation log unavailable